Date,TemperatureHighF,TemperatureAvgF,TemperatureLowF,DewpointHighF,DewpointAvgF,DewpointLowF,HumidityHigh,HumidityAvg,HumidityLow,PressureMaxIn,PressureMinIn,WindSpeedMaxMPH,WindSpeedAvgMPH,GustSpeedMaxMPH,PrecipitationSumIn
2013-4-1,41.6,30.9,23.0,29.1,21.2,14.9,88,69,48,30.13,30.03,5,1,5,0.04
2013-4-2,36.5,29.7,21.4,19.5,16.2,12.8,70,58,48,30.15,30.07,3,0,3,0.00
2013-4-3,29.7,23.0,18.0,5.1,1.6,-0.3,46,39,32,30.46,30.39,10,3,10,0.00
2013-4-4,30.2,23.1,15.7,1.4,-0.2,-2.1,48,37,26,30.47,30.13,8,2,8,0.00
2013-4-5,19.1,14.2,5.6,-3.0,-5.2,-9.1,50,41,36,29.77,29.73,7,2,7,0.00
2013-4-6,21.4,10.2,1.3,0.6,-6.5,-11.3,55,47,34,29.73,29.58,3,1,3,0.00
2013-4-7,11.2,6.9,1.8,3.7,-0.7,-7.6,83,71,48,29.90,29.63,3,0,3,0.00
2013-4-8,16.4,2.8,-13.3,7.1,-2.9,-19.1,84,77,65,29.93,29.46,2,0,2,0.00
2013-4-9,14.9,10.0,7.0,8.0,5.0,2.9,84,80,71,29.47,29.15,3,0,3,0.00
2013-4-10,9.4,4.5,-3.6,3.3,-3.5,-11.2,79,70,55,29.96,29.45,2,0,2,0.00
2013-4-11,16.6,2.1,-17.1,0.6,-8.6,-23.3,76,62,45,30.24,29.96,3,0,3,0.00
2013-4-12,24.7,6.7,-12.2,6.6,-5.0,-18.3,76,60,40,30.34,30.24,4,0,4,0.00
2013-4-13,30.4,11.5,-9.7,8.6,-2.6,-15.6,78,55,34,30.47,30.34,3,0,3,0.00
2013-4-14,31.7,18.3,2.2,16.3,6.5,-6.0,73,60,44,30.56,30.47,3,0,3,0.02
2013-4-15,35.6,25.2,15.5,14.0,8.1,4.7,77,51,29,30.52,30.43,8,1,8,0.01
2013-4-16,31.0,21.9,9.4,15.6,7.0,-0.6,65,53,38,30.43,30.24,5,1,5,0.00
2013-4-17,36.5,27.8,9.5,14.4,8.9,3.2,75,45,35,30.37,30.26,7,1,7,0.00
2013-4-18,35.8,24.0,9.4,9.2,5.5,-0.2,69,46,30,30.42,30.35,11,2,11,0.00
2013-4-19,42.5,27.3,6.7,15.0,7.7,-0.2,75,46,29,30.47,30.39,5,1,5,0.00
2013-4-20,47.3,30.8,11.9,16.4,9.8,2.7,72,44,24,30.41,30.28,5,0,5,0.00
2013-4-21,46.6,39.9,25.4,17.9,13.3,9.4,59,34,25,30.36,30.31,4,1,4,0.00
2013-4-22,48.6,33.1,14.6,19.7,13.1,8.0,78,48,24,30.47,30.36,3,0,3,0.00
2013-4-23,49.1,28.7,19.8,23.2,15.3,12.2,76,59,35,30.40,30.19,2,0,2,0.00
2013-4-24,37.8,34.6,28.8,27.3,23.2,15.9,82,64,43,30.19,29.97,3,1,3,0.06
2013-4-25,35.5,27.8,20.2,24.1,5.4,-3.4,84,40,24,30.09,29.99,9,1,9,0.00
2013-4-26,34.4,24.0,10.6,20.7,10.5,1.7,76,57,37,30.01,29.61,4,1,4,0.00
2013-4-27,32.6,25.0,18.2,18.7,11.4,2.2,86,61,31,30.05,29.66,10,2,10,0.00
2013-4-28,38.2,31.9,20.5,16.4,9.8,-2.3,57,40,27,30.18,30.08,4,1,4,0.00
2013-4-29,34.6,29.4,21.4,27.8,20.6,11.4,91,70,57,30.13,30.08,4,1,4,0.00
2013-4-30,39.4,32.1,27.0,29.9,26.0,20.9,93,79,51,30.08,29.86,5,1,5,0.10